sensor_id;sensor_type;location;lat;lon;timestamp;pressure;altitude;pressure_sealevel;temperature;humidity
48862;BME280;34681;49.188;-0.374;2023-01-28T00:00:32;102753.63;;;5.00;64.46
48862;BME280;34681;49.188;-0.374;2023-01-28T00:02:57;102740.09;;;4.77;64.98
48862;BME280;34681;49.188;-0.374;2023-01-28T00:05:23;102743.91;;;4.73;65.62
48862;BME280;34681;49.188;-0.374;2023-01-28T00:07:49;102747.88;;;4.63;65.11
48862;BME280;34681;49.188;-0.374;2023-01-28T00:10:15;102736.81;;;4.69;65.82
48862;BME280;34681;49.188;-0.374;2023-01-28T00:12:40;102741.13;;;5.18;64.63
48862;BME280;34681;49.188;-0.374;2023-01-28T00:15:06;102737.84;;;5.32;63.21
48862;BME280;34681;49.188;-0.374;2023-01-28T00:17:32;102735.94;;;5.34;63.73
48862;BME280;34681;49.188;-0.374;2023-01-28T00:19:57;102731.47;;;5.11;63.45
48862;BME280;34681;49.188;-0.374;2023-01-28T00:22:22;102732.66;;;5.26;63.47
48862;BME280;34681;49.188;-0.374;2023-01-28T00:24:48;102745.44;;;5.24;62.85
48862;BME280;34681;49.188;-0.374;2023-01-28T00:27:13;102740.19;;;4.97;63.34
48862;BME280;34681;49.188;-0.374;2023-01-28T00:29:39;102732.44;;;4.88;63.48
48862;BME280;34681;49.188;-0.374;2023-01-28T00:32:04;102740.50;;;4.90;63.42
48862;BME280;34681;49.188;-0.374;2023-01-28T00:34:30;102737.53;;;4.96;63.50
48862;BME280;34681;49.188;-0.374;2023-01-28T00:36:55;102740.88;;;4.81;63.69
48862;BME280;34681;49.188;-0.374;2023-01-28T00:39:24;102744.75;;;4.97;63.74
48862;BME280;34681;49.188;-0.374;2023-01-28T00:41:51;102743.59;;;4.81;63.67
48862;BME280;34681;49.188;-0.374;2023-01-28T00:44:18;102741.22;;;4.71;64.14
48862;BME280;34681;49.188;-0.374;2023-01-28T00:46:44;102740.00;;;4.80;63.93
48862;BME280;34681;49.188;-0.374;2023-01-28T00:49:09;102745.00;;;4.67;63.63
48862;BME280;34681;49.188;-0.374;2023-01-28T00:51:34;102745.75;;;4.71;63.44
48862;BME280;34681;49.188;-0.374;2023-01-28T00:54:00;102741.63;;;4.84;63.62
48862;BME280;34681;49.188;-0.374;2023-01-28T00:56:25;102742.38;;;4.88;63.40
48862;BME280;34681;49.188;-0.374;2023-01-28T00:58:51;102733.13;;;5.15;62.46
48862;BME280;34681;49.188;-0.374;2023-01-28T01:01:18;102726.44;;;5.02;62.76
48862;BME280;34681;49.188;-0.374;2023-01-28T01:03:44;102729.72;;;4.88;63.33
48862;BME280;34681;49.188;-0.374;2023-01-28T01:06:11;102730.19;;;4.76;63.63
48862;BME280;34681;49.188;-0.374;2023-01-28T01:08:37;102737.34;;;5.00;62.99
48862;BME280;34681;49.188;-0.374;2023-01-28T01:11:08;102745.16;;;4.86;62.91
48862;BME280;34681;49.188;-0.374;2023-01-28T01:13:33;102732.53;;;4.85;62.67
48862;BME280;34681;49.188;-0.374;2023-01-28T01:16:06;102738.91;;;4.84;63.02
48862;BME280;34681;49.188;-0.374;2023-01-28T01:18:32;102747.50;;;4.73;63.27
48862;BME280;34681;49.188;-0.374;2023-01-28T01:20:58;102741.63;;;4.84;62.65
48862;BME280;34681;49.188;-0.374;2023-01-28T01:23:28;102747.22;;;4.79;62.67
48862;BME280;34681;49.188;-0.374;2023-01-28T01:25:54;102746.16;;;4.84;62.81
48862;BME280;34681;49.188;-0.374;2023-01-28T01:28:20;102737.00;;;4.86;62.61
48862;BME280;34681;49.188;-0.374;2023-01-28T01:30:47;102747.06;;;4.84;62.59
48862;BME280;34681;49.188;-0.374;2023-01-28T01:33:12;102739.16;;;4.78;63.14
48862;BME280;34681;49.188;-0.374;2023-01-28T01:35:38;102739.34;;;4.95;63.17
48862;BME280;34681;49.188;-0.374;2023-01-28T01:38:03;102750.03;;;5.00;62.52
48862;BME280;34681;49.188;-0.374;2023-01-28T01:40:29;102754.81;;;4.93;62.93
48862;BME280;34681;49.188;-0.374;2023-01-28T01:42:54;102751.63;;;5.05;62.35
48862;BME280;34681;49.188;-0.374;2023-01-28T01:45:20;102744.03;;;4.92;62.74
48862;BME280;34681;49.188;-0.374;2023-01-28T01:47:51;102746.81;;;5.12;62.33
48862;BME280;34681;49.188;-0.374;2023-01-28T01:50:42;102753.69;;;5.21;62.19
48862;BME280;34681;49.188;-0.374;2023-01-28T01:53:13;102753.13;;;4.91;63.12
48862;BME280;34681;49.188;-0.374;2023-01-28T01:55:42;102749.69;;;4.86;64.10
48862;BME280;34681;49.188;-0.374;2023-01-28T01:58:12;102753.88;;;4.94;63.67
48862;BME280;34681;49.188;-0.374;2023-01-28T02:00:39;102750.91;;;5.00;63.57
48862;BME280;34681;49.188;-0.374;2023-01-28T02:03:06;102749.53;;;5.34;63.02
48862;BME280;34681;49.188;-0.374;2023-01-28T02:05:32;102750.16;;;5.41;62.62
48862;BME280;34681;49.188;-0.374;2023-01-28T02:07:59;102750.28;;;5.16;63.22
48862;BME280;34681;49.188;-0.374;2023-01-28T02:10:46;102754.13;;;5.10;63.54
48862;BME280;34681;49.188;-0.374;2023-01-28T02:13:13;102752.06;;;5.17;63.71
48862;BME280;34681;49.188;-0.374;2023-01-28T02:15:41;102742.41;;;5.10;64.27
48862;BME280;34681;49.188;-0.374;2023-01-28T02:18:08;102758.94;;;5.25;63.29
48862;BME280;34681;49.188;-0.374;2023-01-28T02:20:41;102768.00;;;5.02;64.20
48862;BME280;34681;49.188;-0.374;2023-01-28T02:26:18;102759.50;;;4.90;64.59
48862;BME280;34681;49.188;-0.374;2023-01-28T02:29:02;102762.41;;;5.07;64.38
48862;BME280;34681;49.188;-0.374;2023-01-28T02:31:34;102753.25;;;5.10;64.41
48862;BME280;34681;49.188;-0.374;2023-01-28T02:34:24;102762.78;;;4.98;64.14
48862;BME280;34681;49.188;-0.374;2023-01-28T02:36:58;102759.19;;;4.97;64.70
48862;BME280;34681;49.188;-0.374;2023-01-28T02:39:36;102757.78;;;4.87;64.87
48862;BME280;34681;49.188;-0.374;2023-01-28T02:42:31;102751.53;;;4.85;65.26
48862;BME280;34681;49.188;-0.374;2023-01-28T02:44:58;102748.13;;;4.80;65.07
48862;BME280;34681;49.188;-0.374;2023-01-28T02:47:23;102752.66;;;4.79;65.33
48862;BME280;34681;49.188;-0.374;2023-01-28T02:50:11;102750.84;;;5.02;64.79
48862;BME280;34681;49.188;-0.374;2023-01-28T02:58:46;102749.16;;;4.99;64.54
48862;BME280;34681;49.188;-0.374;2023-01-28T03:04:08;102753.38;;;5.28;64.28
48862;BME280;34681;49.188;-0.374;2023-01-28T03:06:39;102760.97;;;4.98;64.79
48862;BME280;34681;49.188;-0.374;2023-01-28T03:09:09;102765.88;;;5.11;64.52
48862;BME280;34681;49.188;-0.374;2023-01-28T03:14:39;102769.41;;;5.13;64.57
48862;BME280;34681;49.188;-0.374;2023-01-28T03:17:29;102773.19;;;5.08;64.40
48862;BME280;34681;49.188;-0.374;2023-01-28T03:20:15;102772.19;;;5.33;64.33
48862;BME280;34681;49.188;-0.374;2023-01-28T03:23:02;102764.53;;;5.21;64.67
48862;BME280;34681;49.188;-0.374;2023-01-28T03:25:49;102770.25;;;5.15;64.53
48862;BME280;34681;49.188;-0.374;2023-01-28T03:28:37;102764.88;;;5.35;64.42
48862;BME280;34681;49.188;-0.374;2023-01-28T03:31:22;102763.97;;;5.13;64.39
48862;BME280;34681;49.188;-0.374;2023-01-28T03:34:09;102768.41;;;5.15;64.65
48862;BME280;34681;49.188;-0.374;2023-01-28T03:36:54;102765.66;;;4.93;65.31
48862;BME280;34681;49.188;-0.374;2023-01-28T03:39:28;102762.50;;;5.04;65.30
48862;BME280;34681;49.188;-0.374;2023-01-28T03:42:08;102764.50;;;5.00;65.46
48862;BME280;34681;49.188;-0.374;2023-01-28T03:44:34;102770.34;;;5.12;65.01
48862;BME280;34681;49.188;-0.374;2023-01-28T03:47:17;102761.66;;;5.25;64.66
48862;BME280;34681;49.188;-0.374;2023-01-28T03:49:44;102766.06;;;5.50;64.54
48862;BME280;34681;49.188;-0.374;2023-01-28T03:52:11;102772.03;;;5.58;63.81
48862;BME280;34681;49.188;-0.374;2023-01-28T03:54:37;102760.69;;;5.48;64.04
48862;BME280;34681;49.188;-0.374;2023-01-28T03:57:03;102758.06;;;5.87;63.74
48862;BME280;34681;49.188;-0.374;2023-01-28T03:59:30;102753.75;;;5.61;63.59
48862;BME280;34681;49.188;-0.374;2023-01-28T04:01:56;102748.38;;;5.82;63.59
48862;BME280;34681;49.188;-0.374;2023-01-28T04:04:21;102751.75;;;5.87;63.35
48862;BME280;34681;49.188;-0.374;2023-01-28T04:06:50;102755.19;;;5.92;63.14
48862;BME280;34681;49.188;-0.374;2023-01-28T04:09:15;102756.84;;;5.96;62.99
48862;BME280;34681;49.188;-0.374;2023-01-28T04:11:41;102763.75;;;6.42;61.68
48862;BME280;34681;49.188;-0.374;2023-01-28T04:14:06;102769.34;;;6.79;60.32
48862;BME280;34681;49.188;-0.374;2023-01-28T04:16:31;102768.13;;;6.84;60.28
48862;BME280;34681;49.188;-0.374;2023-01-28T04:18:57;102772.16;;;6.94;59.96
48862;BME280;34681;49.188;-0.374;2023-01-28T04:21:23;102774.53;;;6.83;60.34
48862;BME280;34681;49.188;-0.374;2023-01-28T04:23:49;102779.38;;;6.76;60.68
48862;BME280;34681;49.188;-0.374;2023-01-28T04:26:14;102781.38;;;6.92;60.05
48862;BME280;34681;49.188;-0.374;2023-01-28T04:28:39;102785.66;;;6.97;60.07
48862;BME280;34681;49.188;-0.374;2023-01-28T04:31:05;102786.63;;;6.96;60.11
48862;BME280;34681;49.188;-0.374;2023-01-28T04:33:30;102789.38;;;6.95;60.01
48862;BME280;34681;49.188;-0.374;2023-01-28T04:35:55;102796.03;;;6.89;60.06
48862;BME280;34681;49.188;-0.374;2023-01-28T04:38:21;102799.53;;;6.91;60.44
48862;BME280;34681;49.188;-0.374;2023-01-28T04:40:50;102802.69;;;7.01;60.30
48862;BME280;34681;49.188;-0.374;2023-01-28T04:43:16;102796.53;;;6.97;60.51
48862;BME280;34681;49.188;-0.374;2023-01-28T04:45:42;102795.50;;;7.00;60.78
48862;BME280;34681;49.188;-0.374;2023-01-28T04:48:08;102797.63;;;6.93;61.05
48862;BME280;34681;49.188;-0.374;2023-01-28T04:50:33;102798.59;;;6.73;61.43
48862;BME280;34681;49.188;-0.374;2023-01-28T04:52:58;102798.78;;;6.50;61.61
48862;BME280;34681;49.188;-0.374;2023-01-28T04:55:24;102796.97;;;6.88;60.79
48862;BME280;34681;49.188;-0.374;2023-01-28T04:57:49;102798.28;;;7.17;59.67
48862;BME280;34681;49.188;-0.374;2023-01-28T05:00:15;102802.75;;;7.18;59.96
48862;BME280;34681;49.188;-0.374;2023-01-28T05:02:40;102802.03;;;7.15;59.95
48862;BME280;34681;49.188;-0.374;2023-01-28T05:05:06;102804.78;;;6.96;60.24
48862;BME280;34681;49.188;-0.374;2023-01-28T05:07:33;102812.63;;;7.02;60.37
48862;BME280;34681;49.188;-0.374;2023-01-28T05:09:59;102809.63;;;6.89;60.80
48862;BME280;34681;49.188;-0.374;2023-01-28T05:12:24;102807.00;;;6.48;61.90
48862;BME280;34681;49.188;-0.374;2023-01-28T05:14:50;102797.28;;;6.43;61.97
48862;BME280;34681;49.188;-0.374;2023-01-28T05:17:15;102799.38;;;6.94;60.47
48862;BME280;34681;49.188;-0.374;2023-01-28T05:19:41;102798.53;;;7.13;59.81
48862;BME280;34681;49.188;-0.374;2023-01-28T05:22:06;102803.13;;;7.11;60.11
48862;BME280;34681;49.188;-0.374;2023-01-28T05:24:31;102808.31;;;6.98;60.58
48862;BME280;34681;49.188;-0.374;2023-01-28T05:26:57;102804.41;;;7.03;60.53
48862;BME280;34681;49.188;-0.374;2023-01-28T05:29:22;102804.69;;;7.16;60.06
48862;BME280;34681;49.188;-0.374;2023-01-28T05:31:47;102807.41;;;7.16;60.18
48862;BME280;34681;49.188;-0.374;2023-01-28T05:34:13;102805.94;;;7.09;60.39
48862;BME280;34681;49.188;-0.374;2023-01-28T05:36:38;102804.25;;;7.07;60.53
48862;BME280;34681;49.188;-0.374;2023-01-28T05:39:05;102811.03;;;6.98;61.14
48862;BME280;34681;49.188;-0.374;2023-01-28T05:41:32;102804.53;;;7.00;61.10
48862;BME280;34681;49.188;-0.374;2023-01-28T05:43:57;102813.31;;;7.07;60.87
48862;BME280;34681;49.188;-0.374;2023-01-28T05:46:23;102812.69;;;7.19;60.73
48862;BME280;34681;49.188;-0.374;2023-01-28T05:48:49;102820.16;;;7.16;61.02
48862;BME280;34681;49.188;-0.374;2023-01-28T05:51:15;102819.13;;;6.99;61.61
48862;BME280;34681;49.188;-0.374;2023-01-28T05:53:41;102822.56;;;7.03;61.23
48862;BME280;34681;49.188;-0.374;2023-01-28T05:56:06;102816.63;;;7.14;61.00
48862;BME280;34681;49.188;-0.374;2023-01-28T05:58:32;102822.50;;;7.23;60.64
48862;BME280;34681;49.188;-0.374;2023-01-28T06:00:57;102819.94;;;7.20;61.02
48862;BME280;34681;49.188;-0.374;2023-01-28T06:03:24;102825.88;;;7.28;60.64
48862;BME280;34681;49.188;-0.374;2023-01-28T06:05:49;102823.59;;;7.00;61.16
48862;BME280;34681;49.188;-0.374;2023-01-28T06:08:14;102830.44;;;7.09;61.33
48862;BME280;34681;49.188;-0.374;2023-01-28T06:10:40;102825.88;;;7.10;61.40
48862;BME280;34681;49.188;-0.374;2023-01-28T06:13:05;102835.88;;;7.09;61.25
48862;BME280;34681;49.188;-0.374;2023-01-28T06:15:31;102833.09;;;7.29;60.99
48862;BME280;34681;49.188;-0.374;2023-01-28T06:17:56;102834.63;;;7.35;60.77
48862;BME280;34681;49.188;-0.374;2023-01-28T06:20:21;102833.75;;;7.16;61.11
48862;BME280;34681;49.188;-0.374;2023-01-28T06:22:49;102832.38;;;7.07;61.57
48862;BME280;34681;49.188;-0.374;2023-01-28T06:25:16;102832.78;;;7.36;60.67
48862;BME280;34681;49.188;-0.374;2023-01-28T06:27:41;102829.19;;;7.16;61.65
48862;BME280;34681;49.188;-0.374;2023-01-28T06:30:07;102840.38;;;7.29;61.34
48862;BME280;34681;49.188;-0.374;2023-01-28T06:32:32;102836.97;;;7.43;60.91
48862;BME280;34681;49.188;-0.374;2023-01-28T06:34:58;102839.94;;;7.38;61.36
48862;BME280;34681;49.188;-0.374;2023-01-28T06:37:23;102839.97;;;7.55;60.55
48862;BME280;34681;49.188;-0.374;2023-01-28T06:39:48;102837.81;;;7.45;60.82
48862;BME280;34681;49.188;-0.374;2023-01-28T06:42:14;102852.63;;;7.56;60.75
48862;BME280;34681;49.188;-0.374;2023-01-28T06:44:39;102846.03;;;7.43;61.41
48862;BME280;34681;49.188;-0.374;2023-01-28T06:47:04;102838.63;;;7.64;60.55
48862;BME280;34681;49.188;-0.374;2023-01-28T06:49:30;102844.31;;;7.59;61.02
48862;BME280;34681;49.188;-0.374;2023-01-28T06:51:55;102850.72;;;7.58;60.85
48862;BME280;34681;49.188;-0.374;2023-01-28T06:54:21;102850.28;;;7.49;61.42
48862;BME280;34681;49.188;-0.374;2023-01-28T06:56:46;102858.25;;;7.53;61.38
48862;BME280;34681;49.188;-0.374;2023-01-28T06:59:11;102854.91;;;7.66;61.23
48862;BME280;34681;49.188;-0.374;2023-01-28T07:01:46;102855.69;;;7.68;61.67
48862;BME280;34681;49.188;-0.374;2023-01-28T07:04:11;102866.84;;;7.63;61.44
48862;BME280;34681;49.188;-0.374;2023-01-28T07:06:36;102859.00;;;7.38;62.21
48862;BME280;34681;49.188;-0.374;2023-01-28T07:09:02;102853.72;;;7.52;61.81
48862;BME280;34681;49.188;-0.374;2023-01-28T07:11:27;102850.28;;;7.49;62.00
48862;BME280;34681;49.188;-0.374;2023-01-28T07:13:53;102841.56;;;7.59;61.71
48862;BME280;34681;49.188;-0.374;2023-01-28T07:16:18;102839.72;;;7.60;61.66
48862;BME280;34681;49.188;-0.374;2023-01-28T07:18:43;102841.50;;;7.61;61.52
48862;BME280;34681;49.188;-0.374;2023-01-28T07:21:09;102836.78;;;7.65;61.58
48862;BME280;34681;49.188;-0.374;2023-01-28T07:23:34;102851.47;;;7.62;61.95
48862;BME280;34681;49.188;-0.374;2023-01-28T07:26:03;102842.06;;;7.68;62.16
48862;BME280;34681;49.188;-0.374;2023-01-28T07:28:28;102844.56;;;7.55;62.66
48862;BME280;34681;49.188;-0.374;2023-01-28T07:30:54;102855.69;;;7.68;61.93
48862;BME280;34681;49.188;-0.374;2023-01-28T07:33:20;102843.91;;;7.67;62.24
48862;BME280;34681;49.188;-0.374;2023-01-28T07:35:45;102862.50;;;7.59;62.33
48862;BME280;34681;49.188;-0.374;2023-01-28T07:38:11;102863.47;;;7.01;63.43
48862;BME280;34681;49.188;-0.374;2023-01-28T07:40:36;102860.94;;;6.78;64.24
48862;BME280;34681;49.188;-0.374;2023-01-28T07:43:02;102852.66;;;7.19;62.80
48862;BME280;34681;49.188;-0.374;2023-01-28T07:45:28;102858.38;;;7.50;62.18
48862;BME280;34681;49.188;-0.374;2023-01-28T07:47:58;102853.94;;;7.67;61.76
48862;BME280;34681;49.188;-0.374;2023-01-28T07:50:25;102870.91;;;7.17;63.21
48862;BME280;34681;49.188;-0.374;2023-01-28T07:52:50;102866.38;;;6.78;64.27
48862;BME280;34681;49.188;-0.374;2023-01-28T07:55:16;102858.13;;;7.38;62.91
48862;BME280;34681;49.188;-0.374;2023-01-28T07:57:48;102847.53;;;7.68;62.17
48862;BME280;34681;49.188;-0.374;2023-01-28T08:00:15;102853.34;;;7.60;62.75
48862;BME280;34681;49.188;-0.374;2023-01-28T08:02:40;102840.97;;;7.72;62.69
48862;BME280;34681;49.188;-0.374;2023-01-28T08:05:05;102844.66;;;7.71;62.97
48862;BME280;34681;49.188;-0.374;2023-01-28T08:07:31;102858.03;;;7.75;63.18
48862;BME280;34681;49.188;-0.374;2023-01-28T08:09:56;102858.16;;;7.91;62.55
48862;BME280;34681;49.188;-0.374;2023-01-28T08:12:21;102869.91;;;7.38;63.63
48862;BME280;34681;49.188;-0.374;2023-01-28T08:14:47;102859.00;;;6.61;65.68
48862;BME280;34681;49.188;-0.374;2023-01-28T08:17:12;102861.25;;;6.52;66.24
48862;BME280;34681;49.188;-0.374;2023-01-28T08:19:37;102859.22;;;6.16;67.24
48862;BME280;34681;49.188;-0.374;2023-01-28T08:22:03;102861.56;;;6.03;67.31
48862;BME280;34681;49.188;-0.374;2023-01-28T08:24:28;102864.09;;;5.86;68.09
48862;BME280;34681;49.188;-0.374;2023-01-28T08:26:53;102876.59;;;5.91;68.52
48862;BME280;34681;49.188;-0.374;2023-01-28T08:29:19;102873.97;;;5.88;68.20
48862;BME280;34681;49.188;-0.374;2023-01-28T08:31:44;102871.56;;;6.03;68.87
48862;BME280;34681;49.188;-0.374;2023-01-28T08:34:09;102878.66;;;6.07;68.25
48862;BME280;34681;49.188;-0.374;2023-01-28T08:36:35;102874.78;;;6.33;67.35
48862;BME280;34681;49.188;-0.374;2023-01-28T08:39:00;102873.84;;;6.54;66.59
48862;BME280;34681;49.188;-0.374;2023-01-28T08:41:25;102872.75;;;6.58;66.28
48862;BME280;34681;49.188;-0.374;2023-01-28T08:43:51;102876.44;;;7.34;64.95
48862;BME280;34681;49.188;-0.374;2023-01-28T08:46:16;102871.72;;;7.56;64.48
48862;BME280;34681;49.188;-0.374;2023-01-28T08:48:41;102885.50;;;7.16;65.21
48862;BME280;34681;49.188;-0.374;2023-01-28T08:51:07;102876.97;;;7.23;65.02
48862;BME280;34681;49.188;-0.374;2023-01-28T08:53:33;102879.38;;;7.11;65.01
48862;BME280;34681;49.188;-0.374;2023-01-28T08:55:58;102886.88;;;6.66;65.83
48862;BME280;34681;49.188;-0.374;2023-01-28T08:58:23;102892.84;;;6.74;66.26
48862;BME280;34681;49.188;-0.374;2023-01-28T09:00:49;102896.72;;;6.89;66.37
48862;BME280;34681;49.188;-0.374;2023-01-28T09:03:16;102910.25;;;6.91;66.02
48862;BME280;34681;49.188;-0.374;2023-01-28T09:05:41;102906.81;;;6.67;65.52
48862;BME280;34681;49.188;-0.374;2023-01-28T09:08:10;102900.41;;;6.68;67.08
48862;BME280;34681;49.188;-0.374;2023-01-28T09:10:36;102910.59;;;6.83;64.41
48862;BME280;34681;49.188;-0.374;2023-01-28T09:13:06;102913.16;;;6.47;65.21
48862;BME280;34681;49.188;-0.374;2023-01-28T09:15:33;102924.72;;;6.72;65.08
48862;BME280;34681;49.188;-0.374;2023-01-28T09:17:58;102922.03;;;6.91;63.29
48862;BME280;34681;49.188;-0.374;2023-01-28T09:20:25;102909.91;;;6.78;63.42
48862;BME280;34681;49.188;-0.374;2023-01-28T09:22:50;102925.44;;;7.15;62.55
48862;BME280;34681;49.188;-0.374;2023-01-28T09:25:16;102921.34;;;7.25;62.96
48862;BME280;34681;49.188;-0.374;2023-01-28T09:27:41;102925.25;;;7.39;62.14
48862;BME280;34681;49.188;-0.374;2023-01-28T09:30:09;102937.84;;;7.02;62.86
48862;BME280;34681;49.188;-0.374;2023-01-28T09:32:35;102939.94;;;7.16;63.40
48862;BME280;34681;49.188;-0.374;2023-01-28T09:35:01;102934.91;;;7.46;62.81
48862;BME280;34681;49.188;-0.374;2023-01-28T09:37:26;102941.66;;;7.56;62.27
48862;BME280;34681;49.188;-0.374;2023-01-28T09:39:52;102942.84;;;7.31;62.62
48862;BME280;34681;49.188;-0.374;2023-01-28T09:42:58;102947.47;;;7.67;62.46
48862;BME280;34681;49.188;-0.374;2023-01-28T09:45:30;102948.00;;;7.38;62.34
48862;BME280;34681;49.188;-0.374;2023-01-28T09:48:01;102944.84;;;6.89;65.04
48862;BME280;34681;49.188;-0.374;2023-01-28T09:50:33;102947.59;;;7.08;64.38
48862;BME280;34681;49.188;-0.374;2023-01-28T09:53:05;102936.84;;;7.04;63.21
48862;BME280;34681;49.188;-0.374;2023-01-28T09:55:37;102947.97;;;7.19;63.69
48862;BME280;34681;49.188;-0.374;2023-01-28T09:58:06;102952.31;;;7.04;63.82
48862;BME280;34681;49.188;-0.374;2023-01-28T10:06:23;102961.78;;;6.75;64.91
48862;BME280;34681;49.188;-0.374;2023-01-28T10:09:22;102954.88;;;7.07;64.89
48862;BME280;34681;49.188;-0.374;2023-01-28T10:17:25;102963.66;;;7.51;64.28
48862;BME280;34681;49.188;-0.374;2023-01-28T10:20:00;102965.44;;;7.33;64.33
48862;BME280;34681;49.188;-0.374;2023-01-28T10:22:43;102974.34;;;6.78;65.37
48862;BME280;34681;49.188;-0.374;2023-01-28T10:25:30;102962.22;;;7.05;65.67
48862;BME280;34681;49.188;-0.374;2023-01-28T10:27:57;102961.03;;;7.11;65.87
48862;BME280;34681;49.188;-0.374;2023-01-28T10:30:25;102974.31;;;6.79;66.77
48862;BME280;34681;49.188;-0.374;2023-01-28T10:33:03;102969.78;;;6.78;67.41
48862;BME280;34681;49.188;-0.374;2023-01-28T10:35:37;102969.72;;;6.59;67.74
48862;BME280;34681;49.188;-0.374;2023-01-28T10:38:06;102977.63;;;6.65;67.74
48862;BME280;34681;49.188;-0.374;2023-01-28T10:40:34;102980.75;;;6.56;67.95
48862;BME280;34681;49.188;-0.374;2023-01-28T10:43:00;102973.22;;;6.63;68.01
48862;BME280;34681;49.188;-0.374;2023-01-28T10:45:36;102974.81;;;7.08;66.69
48862;BME280;34681;49.188;-0.374;2023-01-28T10:48:22;102976.13;;;7.38;65.48
48862;BME280;34681;49.188;-0.374;2023-01-28T10:50:53;102976.72;;;7.06;66.73
48862;BME280;34681;49.188;-0.374;2023-01-28T10:53:33;102968.84;;;7.39;67.03
48862;BME280;34681;49.188;-0.374;2023-01-28T10:55:59;102973.34;;;7.19;66.83
48862;BME280;34681;49.188;-0.374;2023-01-28T10:58:27;102969.56;;;7.42;66.16
48862;BME280;34681;49.188;-0.374;2023-01-28T11:00:56;102965.25;;;7.18;66.50
48862;BME280;34681;49.188;-0.374;2023-01-28T11:03:22;102968.47;;;7.07;66.85
48862;BME280;34681;49.188;-0.374;2023-01-28T11:05:53;102968.22;;;6.93;66.97
48862;BME280;34681;49.188;-0.374;2023-01-28T11:08:19;102966.84;;;7.03;67.13
48862;BME280;34681;49.188;-0.374;2023-01-28T11:10:46;102969.28;;;7.29;66.83
48862;BME280;34681;49.188;-0.374;2023-01-28T11:13:18;102968.50;;;7.26;66.42
48862;BME280;34681;49.188;-0.374;2023-01-28T11:15:52;102967.59;;;6.86;66.75
48862;BME280;34681;49.188;-0.374;2023-01-28T11:18:24;102966.47;;;6.71;67.23
48862;BME280;34681;49.188;-0.374;2023-01-28T11:20:57;102965.78;;;6.66;68.15
48862;BME280;34681;49.188;-0.374;2023-01-28T11:23:26;102966.41;;;6.73;68.79
48862;BME280;34681;49.188;-0.374;2023-01-28T11:28:29;102966.91;;;7.01;66.49
48862;BME280;34681;49.188;-0.374;2023-01-28T11:30:56;102959.78;;;6.99;66.82
48862;BME280;34681;49.188;-0.374;2023-01-28T11:33:31;102957.00;;;7.00;67.48
48862;BME280;34681;49.188;-0.374;2023-01-28T11:39:01;102951.56;;;7.19;67.05
48862;BME280;34681;49.188;-0.374;2023-01-28T11:41:37;102955.06;;;7.42;67.03
48862;BME280;34681;49.188;-0.374;2023-01-28T11:44:15;102942.16;;;7.08;67.65
48862;BME280;34681;49.188;-0.374;2023-01-28T11:52:13;102941.34;;;7.24;66.91
48862;BME280;34681;49.188;-0.374;2023-01-28T11:57:22;102939.41;;;8.19;65.20
48862;BME280;34681;49.188;-0.374;2023-01-28T12:02:45;102946.00;;;7.79;65.19
48862;BME280;34681;49.188;-0.374;2023-01-28T12:11:29;102936.66;;;7.66;65.07
48862;BME280;34681;49.188;-0.374;2023-01-28T12:14:27;102952.16;;;7.26;65.17
48862;BME280;34681;49.188;-0.374;2023-01-28T12:17:13;102943.63;;;7.15;66.11
48862;BME280;34681;49.188;-0.374;2023-01-28T12:20:12;102939.84;;;7.38;66.31
48862;BME280;34681;49.188;-0.374;2023-01-28T12:25:50;102931.94;;;7.50;66.04
48862;BME280;34681;49.188;-0.374;2023-01-28T12:37:15;102915.06;;;7.61;64.66
48862;BME280;34681;49.188;-0.374;2023-01-28T12:42:42;102910.88;;;7.35;64.93
48862;BME280;34681;49.188;-0.374;2023-01-28T12:45:15;102905.31;;;7.38;65.54
48862;BME280;34681;49.188;-0.374;2023-01-28T12:47:48;102902.50;;;7.21;65.33
48862;BME280;34681;49.188;-0.374;2023-01-28T12:53:37;102889.69;;;7.23;65.70
48862;BME280;34681;49.188;-0.374;2023-01-28T12:55:39;102892.84;;;7.32;65.79
48862;BME280;34681;49.188;-0.374;2023-01-28T12:58:17;102880.22;;;7.13;65.95
48862;BME280;34681;49.188;-0.374;2023-01-28T13:00:48;102878.34;;;7.32;65.45
48862;BME280;34681;49.188;-0.374;2023-01-28T13:03:55;102857.25;;;7.73;65.06
48862;BME280;34681;49.188;-0.374;2023-01-28T13:09:00;102852.75;;;7.72;64.34
48862;BME280;34681;49.188;-0.374;2023-01-28T13:11:32;102852.19;;;7.83;64.63
48862;BME280;34681;49.188;-0.374;2023-01-28T13:13:59;102851.16;;;7.85;64.48
48862;BME280;34681;49.188;-0.374;2023-01-28T13:16:25;102850.47;;;7.46;64.83
48862;BME280;34681;49.188;-0.374;2023-01-28T13:18:51;102835.50;;;7.54;65.02
48862;BME280;34681;49.188;-0.374;2023-01-28T13:23:49;102825.81;;;7.66;65.29
48862;BME280;34681;49.188;-0.374;2023-01-28T13:28:47;102812.75;;;7.73;65.71
48862;BME280;34681;49.188;-0.374;2023-01-28T13:31:15;102805.16;;;7.79;65.49
48862;BME280;34681;49.188;-0.374;2023-01-28T13:34:00;102818.88;;;7.78;64.47
48862;BME280;34681;49.188;-0.374;2023-01-28T13:36:32;102825.25;;;7.94;64.62
48862;BME280;34681;49.188;-0.374;2023-01-28T13:39:12;102825.59;;;8.23;63.93
48862;BME280;34681;49.188;-0.374;2023-01-28T13:41:47;102824.25;;;8.14;63.40
48862;BME280;34681;49.188;-0.374;2023-01-28T13:44:31;102832.19;;;8.86;61.85
48862;BME280;34681;49.188;-0.374;2023-01-28T13:49:39;102859.84;;;7.57;64.11
48862;BME280;34681;49.188;-0.374;2023-01-28T14:03:31;102879.16;;;7.34;66.04
48862;BME280;34681;49.188;-0.374;2023-01-28T14:19:47;102883.66;;;6.97;68.65
48862;BME280;34681;49.188;-0.374;2023-01-28T14:22:18;102893.13;;;7.26;67.91
48862;BME280;34681;49.188;-0.374;2023-01-28T14:24:45;102886.09;;;7.22;68.23
48862;BME280;34681;49.188;-0.374;2023-01-28T14:27:13;102889.25;;;7.13;68.40
48862;BME280;34681;49.188;-0.374;2023-01-28T14:32:24;102895.38;;;7.37;67.68
48862;BME280;34681;49.188;-0.374;2023-01-28T14:34:52;102890.84;;;7.36;67.91
48862;BME280;34681;49.188;-0.374;2023-01-28T14:37:19;102894.75;;;7.49;66.92
48862;BME280;34681;49.188;-0.374;2023-01-28T14:39:59;102897.78;;;7.24;67.62
48862;BME280;34681;49.188;-0.374;2023-01-28T14:42:29;102884.38;;;7.01;68.50
48862;BME280;34681;49.188;-0.374;2023-01-28T14:50:17;102887.63;;;7.09;68.08